sensor_id;sensor_type;location;lat;lon;timestamp;P1;durP1;ratioP1;P2;durP2;ratioP2
74538;SDS011;63087;51.086;-115.332;2022-09-09T00:04:24;3.00;;;0.80;;
74538;SDS011;63087;51.086;-115.332;2022-09-09T00:10:13;2.00;;;0.80;;
74538;SDS011;63087;51.086;-115.332;2022-09-09T00:15:27;3.40;;;1.10;;
74538;SDS011;63087;51.086;-115.332;2022-09-09T00:23:40;2.50;;;0.90;;
74538;SDS011;63087;51.086;-115.332;2022-09-09T00:26:42;4.00;;;0.60;;
74538;SDS011;63087;51.086;-115.332;2022-09-09T00:29:20;2.80;;;0.90;;
74538;SDS011;63087;51.086;-115.332;2022-09-09T00:32:32;3.40;;;0.90;;
74538;SDS011;63087;51.086;-115.332;2022-09-09T00:38:00;3.30;;;0.60;;
74538;SDS011;63087;51.086;-115.332;2022-09-09T00:57:35;4.40;;;1.10;;
74538;SDS011;63087;51.086;-115.332;2022-09-09T01:00:22;2.90;;;1.20;;
74538;SDS011;63087;51.086;-115.332;2022-09-09T01:03:04;5.50;;;1.20;;
74538;SDS011;63087;51.086;-115.332;2022-09-09T01:06:21;4.30;;;1.10;;
74538;SDS011;63087;51.086;-115.332;2022-09-09T01:09:48;3.50;;;1.40;;
74538;SDS011;63087;51.086;-115.332;2022-09-09T01:14:51;3.30;;;1.40;;
74538;SDS011;63087;51.086;-115.332;2022-09-09T01:17:58;3.80;;;1.20;;
74538;SDS011;63087;51.086;-115.332;2022-09-09T01:29:01;2.80;;;0.90;;
74538;SDS011;63087;51.086;-115.332;2022-09-09T01:31:33;4.20;;;1.10;;
74538;SDS011;63087;51.086;-115.332;2022-09-09T01:34:14;4.10;;;0.90;;
74538;SDS011;63087;51.086;-115.332;2022-09-09T01:37:02;2.10;;;1.10;;
74538;SDS011;63087;51.086;-115.332;2022-09-09T01:39:35;2.60;;;1.00;;
74538;SDS011;63087;51.086;-115.332;2022-09-09T01:42:04;3.30;;;1.30;;
74538;SDS011;63087;51.086;-115.332;2022-09-09T01:44:36;4.70;;;0.90;;
74538;SDS011;63087;51.086;-115.332;2022-09-09T01:47:04;4.20;;;0.90;;
74538;SDS011;63087;51.086;-115.332;2022-09-09T01:49:32;2.60;;;1.20;;
74538;SDS011;63087;51.086;-115.332;2022-09-09T01:51:59;1.90;;;0.90;;
74538;SDS011;63087;51.086;-115.332;2022-09-09T01:54:30;2.60;;;1.10;;
74538;SDS011;63087;51.086;-115.332;2022-09-09T01:57:21;1.90;;;1.00;;
74538;SDS011;63087;51.086;-115.332;2022-09-09T02:08:27;3.10;;;1.20;;
74538;SDS011;63087;51.086;-115.332;2022-09-09T02:11:34;2.70;;;1.20;;
74538;SDS011;63087;51.086;-115.332;2022-09-09T02:14:17;2.40;;;1.40;;
74538;SDS011;63087;51.086;-115.332;2022-09-09T02:17:13;3.00;;;1.40;;
74538;SDS011;63087;51.086;-115.332;2022-09-09T02:19:56;2.90;;;1.40;;
74538;SDS011;63087;51.086;-115.332;2022-09-09T02:22:31;1.90;;;1.00;;
74538;SDS011;63087;51.086;-115.332;2022-09-09T02:25:00;3.70;;;1.50;;
74538;SDS011;63087;51.086;-115.332;2022-09-09T02:27:31;2.70;;;1.60;;
74538;SDS011;63087;51.086;-115.332;2022-09-09T02:29:59;2.30;;;1.10;;
74538;SDS011;63087;51.086;-115.332;2022-09-09T02:32:30;3.90;;;1.50;;
74538;SDS011;63087;51.086;-115.332;2022-09-09T02:35:19;3.30;;;1.70;;
74538;SDS011;63087;51.086;-115.332;2022-09-09T02:37:53;4.10;;;1.80;;
74538;SDS011;63087;51.086;-115.332;2022-09-09T02:40:25;4.00;;;1.90;;
74538;SDS011;63087;51.086;-115.332;2022-09-09T02:42:54;5.20;;;1.40;;
74538;SDS011;63087;51.086;-115.332;2022-09-09T02:45:30;2.10;;;1.00;;
74538;SDS011;63087;51.086;-115.332;2022-09-09T02:48:14;4.10;;;1.40;;
74538;SDS011;63087;51.086;-115.332;2022-09-09T02:54:28;1.90;;;1.00;;
74538;SDS011;63087;51.086;-115.332;2022-09-09T02:59:58;3.10;;;1.70;;
74538;SDS011;63087;51.086;-115.332;2022-09-09T03:02:27;3.90;;;1.20;;
74538;SDS011;63087;51.086;-115.332;2022-09-09T03:04:54;4.80;;;1.30;;
74538;SDS011;63087;51.086;-115.332;2022-09-09T03:07:22;3.40;;;1.70;;
74538;SDS011;63087;51.086;-115.332;2022-09-09T03:09:50;2.50;;;1.40;;
74538;SDS011;63087;51.086;-115.332;2022-09-09T03:12:17;2.30;;;1.50;;
74538;SDS011;63087;51.086;-115.332;2022-09-09T03:14:45;2.60;;;1.00;;
74538;SDS011;63087;51.086;-115.332;2022-09-09T03:17:13;3.10;;;1.10;;
74538;SDS011;63087;51.086;-115.332;2022-09-09T03:19:40;4.60;;;1.20;;
74538;SDS011;63087;51.086;-115.332;2022-09-09T03:22:09;3.60;;;1.60;;
74538;SDS011;63087;51.086;-115.332;2022-09-09T03:24:37;3.70;;;1.50;;
74538;SDS011;63087;51.086;-115.332;2022-09-09T03:27:05;3.00;;;1.20;;
74538;SDS011;63087;51.086;-115.332;2022-09-09T03:29:33;2.50;;;1.20;;
74538;SDS011;63087;51.086;-115.332;2022-09-09T03:32:01;3.40;;;1.20;;
74538;SDS011;63087;51.086;-115.332;2022-09-09T03:34:28;3.30;;;1.50;;
74538;SDS011;63087;51.086;-115.332;2022-09-09T03:36:57;2.80;;;1.40;;
74538;SDS011;63087;51.086;-115.332;2022-09-09T03:39:24;4.60;;;1.20;;
74538;SDS011;63087;51.086;-115.332;2022-09-09T03:41:58;3.20;;;1.40;;
74538;SDS011;63087;51.086;-115.332;2022-09-09T03:44:25;2.60;;;1.50;;
74538;SDS011;63087;51.086;-115.332;2022-09-09T03:46:52;6.20;;;1.50;;
74538;SDS011;63087;51.086;-115.332;2022-09-09T03:49:19;3.10;;;1.40;;
74538;SDS011;63087;51.086;-115.332;2022-09-09T03:51:48;2.30;;;1.30;;
74538;SDS011;63087;51.086;-115.332;2022-09-09T03:54:15;3.30;;;1.30;;
74538;SDS011;63087;51.086;-115.332;2022-09-09T03:56:42;3.40;;;1.20;;
74538;SDS011;63087;51.086;-115.332;2022-09-09T03:59:10;1.70;;;0.90;;
74538;SDS011;63087;51.086;-115.332;2022-09-09T04:01:37;3.50;;;1.30;;
74538;SDS011;63087;51.086;-115.332;2022-09-09T04:04:06;3.80;;;1.60;;
74538;SDS011;63087;51.086;-115.332;2022-09-09T04:06:33;3.20;;;1.20;;
74538;SDS011;63087;51.086;-115.332;2022-09-09T04:09:00;3.60;;;1.50;;
74538;SDS011;63087;51.086;-115.332;2022-09-09T04:11:29;2.60;;;1.30;;
74538;SDS011;63087;51.086;-115.332;2022-09-09T04:13:57;3.50;;;1.60;;
74538;SDS011;63087;51.086;-115.332;2022-09-09T04:16:24;2.70;;;1.30;;
74538;SDS011;63087;51.086;-115.332;2022-09-09T04:18:52;2.80;;;1.60;;
74538;SDS011;63087;51.086;-115.332;2022-09-09T04:21:19;4.30;;;1.30;;
74538;SDS011;63087;51.086;-115.332;2022-09-09T04:23:47;2.70;;;1.50;;
74538;SDS011;63087;51.086;-115.332;2022-09-09T04:26:14;5.00;;;1.50;;
74538;SDS011;63087;51.086;-115.332;2022-09-09T04:28:41;3.90;;;1.40;;
74538;SDS011;63087;51.086;-115.332;2022-09-09T04:31:16;3.00;;;1.30;;
74538;SDS011;63087;51.086;-115.332;2022-09-09T04:33:51;2.10;;;1.10;;
74538;SDS011;63087;51.086;-115.332;2022-09-09T04:36:19;3.10;;;1.20;;
74538;SDS011;63087;51.086;-115.332;2022-09-09T04:38:46;4.20;;;1.30;;
74538;SDS011;63087;51.086;-115.332;2022-09-09T04:41:15;4.30;;;1.40;;
74538;SDS011;63087;51.086;-115.332;2022-09-09T04:43:42;2.20;;;1.30;;
74538;SDS011;63087;51.086;-115.332;2022-09-09T04:46:10;4.00;;;1.70;;
74538;SDS011;63087;51.086;-115.332;2022-09-09T04:48:36;3.30;;;1.50;;
74538;SDS011;63087;51.086;-115.332;2022-09-09T04:51:05;3.70;;;1.40;;
74538;SDS011;63087;51.086;-115.332;2022-09-09T04:53:35;3.10;;;1.30;;
74538;SDS011;63087;51.086;-115.332;2022-09-09T04:56:14;2.20;;;1.50;;
74538;SDS011;63087;51.086;-115.332;2022-09-09T04:58:42;3.10;;;1.30;;
74538;SDS011;63087;51.086;-115.332;2022-09-09T05:01:18;4.00;;;1.40;;
74538;SDS011;63087;51.086;-115.332;2022-09-09T05:03:47;1.90;;;0.90;;
74538;SDS011;63087;51.086;-115.332;2022-09-09T05:06:20;6.50;;;1.80;;
74538;SDS011;63087;51.086;-115.332;2022-09-09T05:08:48;4.00;;;1.10;;
74538;SDS011;63087;51.086;-115.332;2022-09-09T05:11:27;5.30;;;1.10;;
74538;SDS011;63087;51.086;-115.332;2022-09-09T05:13:56;2.00;;;0.90;;
74538;SDS011;63087;51.086;-115.332;2022-09-09T05:16:23;3.50;;;1.40;;
74538;SDS011;63087;51.086;-115.332;2022-09-09T05:18:51;2.60;;;1.40;;
74538;SDS011;63087;51.086;-115.332;2022-09-09T05:21:20;2.90;;;1.40;;
74538;SDS011;63087;51.086;-115.332;2022-09-09T05:23:50;3.90;;;1.30;;
74538;SDS011;63087;51.086;-115.332;2022-09-09T05:26:20;3.00;;;1.30;;
74538;SDS011;63087;51.086;-115.332;2022-09-09T05:28:48;2.70;;;1.60;;
74538;SDS011;63087;51.086;-115.332;2022-09-09T05:31:17;3.50;;;1.70;;
74538;SDS011;63087;51.086;-115.332;2022-09-09T05:33:47;4.30;;;1.60;;
74538;SDS011;63087;51.086;-115.332;2022-09-09T05:36:18;3.40;;;1.40;;
74538;SDS011;63087;51.086;-115.332;2022-09-09T05:38:47;3.20;;;1.50;;
74538;SDS011;63087;51.086;-115.332;2022-09-09T05:41:15;3.70;;;1.50;;
74538;SDS011;63087;51.086;-115.332;2022-09-09T05:43:44;5.90;;;1.50;;
74538;SDS011;63087;51.086;-115.332;2022-09-09T05:46:18;3.50;;;1.40;;
74538;SDS011;63087;51.086;-115.332;2022-09-09T05:48:48;3.30;;;1.30;;
74538;SDS011;63087;51.086;-115.332;2022-09-09T05:51:20;3.60;;;1.40;;
74538;SDS011;63087;51.086;-115.332;2022-09-09T05:53:49;4.70;;;1.30;;
74538;SDS011;63087;51.086;-115.332;2022-09-09T05:56:19;6.30;;;1.90;;
74538;SDS011;63087;51.086;-115.332;2022-09-09T05:58:54;3.40;;;1.80;;
74538;SDS011;63087;51.086;-115.332;2022-09-09T06:01:33;3.60;;;1.10;;
74538;SDS011;63087;51.086;-115.332;2022-09-09T06:04:02;4.00;;;2.00;;
74538;SDS011;63087;51.086;-115.332;2022-09-09T06:06:36;3.90;;;1.70;;
74538;SDS011;63087;51.086;-115.332;2022-09-09T06:09:07;2.90;;;1.30;;
74538;SDS011;63087;51.086;-115.332;2022-09-09T06:11:40;5.10;;;1.60;;
74538;SDS011;63087;51.086;-115.332;2022-09-09T06:14:09;5.00;;;2.10;;
74538;SDS011;63087;51.086;-115.332;2022-09-09T06:16:36;4.20;;;1.40;;
74538;SDS011;63087;51.086;-115.332;2022-09-09T06:19:04;4.40;;;1.70;;
74538;SDS011;63087;51.086;-115.332;2022-09-09T06:21:33;3.30;;;1.00;;
74538;SDS011;63087;51.086;-115.332;2022-09-09T06:24:04;2.40;;;1.10;;
74538;SDS011;63087;51.086;-115.332;2022-09-09T06:26:35;1.60;;;0.60;;
74538;SDS011;63087;51.086;-115.332;2022-09-09T06:29:07;1.60;;;0.50;;
74538;SDS011;63087;51.086;-115.332;2022-09-09T06:31:36;1.80;;;0.40;;
74538;SDS011;63087;51.086;-115.332;2022-09-09T06:34:08;1.80;;;0.40;;
74538;SDS011;63087;51.086;-115.332;2022-09-09T06:36:37;2.80;;;0.70;;
74538;SDS011;63087;51.086;-115.332;2022-09-09T06:39:06;1.60;;;0.60;;
74538;SDS011;63087;51.086;-115.332;2022-09-09T06:41:37;2.10;;;0.70;;
74538;SDS011;63087;51.086;-115.332;2022-09-09T06:44:04;1.30;;;0.40;;
74538;SDS011;63087;51.086;-115.332;2022-09-09T06:46:32;1.10;;;0.40;;
74538;SDS011;63087;51.086;-115.332;2022-09-09T06:48:59;1.10;;;0.50;;
74538;SDS011;63087;51.086;-115.332;2022-09-09T06:51:29;2.30;;;0.80;;
74538;SDS011;63087;51.086;-115.332;2022-09-09T06:54:00;2.30;;;0.60;;
74538;SDS011;63087;51.086;-115.332;2022-09-09T06:56:36;2.90;;;0.50;;
74538;SDS011;63087;51.086;-115.332;2022-09-09T06:59:07;2.30;;;0.40;;
74538;SDS011;63087;51.086;-115.332;2022-09-09T07:01:40;1.90;;;0.40;;
74538;SDS011;63087;51.086;-115.332;2022-09-09T07:04:10;0.80;;;0.40;;
74538;SDS011;63087;51.086;-115.332;2022-09-09T07:06:42;1.50;;;0.40;;
74538;SDS011;63087;51.086;-115.332;2022-09-09T07:09:13;1.70;;;0.30;;
74538;SDS011;63087;51.086;-115.332;2022-09-09T07:11:47;1.80;;;0.30;;
74538;SDS011;63087;51.086;-115.332;2022-09-09T07:14:19;1.50;;;0.40;;
74538;SDS011;63087;51.086;-115.332;2022-09-09T07:16:47;3.80;;;1.30;;
74538;SDS011;63087;51.086;-115.332;2022-09-09T07:19:14;3.10;;;0.80;;
74538;SDS011;63087;51.086;-115.332;2022-09-09T07:21:42;3.40;;;1.10;;
74538;SDS011;63087;51.086;-115.332;2022-09-09T07:24:10;2.40;;;0.60;;
74538;SDS011;63087;51.086;-115.332;2022-09-09T07:26:38;2.30;;;0.70;;
74538;SDS011;63087;51.086;-115.332;2022-09-09T07:29:06;1.30;;;0.60;;
74538;SDS011;63087;51.086;-115.332;2022-09-09T07:31:37;1.40;;;0.70;;
74538;SDS011;63087;51.086;-115.332;2022-09-09T07:34:06;1.80;;;0.70;;
74538;SDS011;63087;51.086;-115.332;2022-09-09T07:36:36;3.10;;;1.00;;
74538;SDS011;63087;51.086;-115.332;2022-09-09T07:39:07;2.60;;;0.70;;
74538;SDS011;63087;51.086;-115.332;2022-09-09T07:41:38;2.70;;;1.40;;
74538;SDS011;63087;51.086;-115.332;2022-09-09T07:44:17;2.50;;;1.00;;
74538;SDS011;63087;51.086;-115.332;2022-09-09T07:46:47;4.30;;;1.20;;
74538;SDS011;63087;51.086;-115.332;2022-09-09T07:49:14;2.60;;;1.10;;
74538;SDS011;63087;51.086;-115.332;2022-09-09T07:51:44;2.00;;;0.70;;
74538;SDS011;63087;51.086;-115.332;2022-09-09T07:54:14;1.30;;;0.60;;
74538;SDS011;63087;51.086;-115.332;2022-09-09T07:56:47;1.20;;;0.50;;
74538;SDS011;63087;51.086;-115.332;2022-09-09T07:59:15;1.00;;;0.40;;
74538;SDS011;63087;51.086;-115.332;2022-09-09T08:01:45;1.00;;;0.40;;
74538;SDS011;63087;51.086;-115.332;2022-09-09T08:04:16;1.20;;;0.30;;
74538;SDS011;63087;51.086;-115.332;2022-09-09T08:06:48;2.40;;;0.40;;
74538;SDS011;63087;51.086;-115.332;2022-09-09T08:09:19;0.80;;;0.30;;
74538;SDS011;63087;51.086;-115.332;2022-09-09T08:11:47;1.50;;;0.30;;
74538;SDS011;63087;51.086;-115.332;2022-09-09T08:14:14;1.00;;;0.30;;
74538;SDS011;63087;51.086;-115.332;2022-09-09T08:16:44;0.80;;;0.30;;
74538;SDS011;63087;51.086;-115.332;2022-09-09T08:19:13;1.70;;;0.50;;
74538;SDS011;63087;51.086;-115.332;2022-09-09T08:21:44;0.80;;;0.40;;
74538;SDS011;63087;51.086;-115.332;2022-09-09T08:24:12;1.10;;;0.50;;
74538;SDS011;63087;51.086;-115.332;2022-09-09T08:26:45;1.50;;;0.30;;
74538;SDS011;63087;51.086;-115.332;2022-09-09T08:29:15;1.40;;;0.30;;
74538;SDS011;63087;51.086;-115.332;2022-09-09T08:31:47;0.60;;;0.30;;
74538;SDS011;63087;51.086;-115.332;2022-09-09T08:34:17;0.80;;;0.50;;
74538;SDS011;63087;51.086;-115.332;2022-09-09T08:36:49;1.30;;;0.30;;
74538;SDS011;63087;51.086;-115.332;2022-09-09T08:39:19;1.60;;;0.40;;
74538;SDS011;63087;51.086;-115.332;2022-09-09T08:48:28;1.90;;;0.60;;
74538;SDS011;63087;51.086;-115.332;2022-09-09T08:51:03;1.40;;;0.70;;
74538;SDS011;63087;51.086;-115.332;2022-09-09T08:53:44;1.10;;;0.50;;
74538;SDS011;63087;51.086;-115.332;2022-09-09T08:56:21;0.80;;;0.30;;
74538;SDS011;63087;51.086;-115.332;2022-09-09T08:58:52;1.30;;;0.40;;
74538;SDS011;63087;51.086;-115.332;2022-09-09T09:12:35;1.00;;;0.40;;
74538;SDS011;63087;51.086;-115.332;2022-09-09T09:15:25;1.80;;;0.40;;
74538;SDS011;63087;51.086;-115.332;2022-09-09T09:17:57;1.80;;;0.40;;
74538;SDS011;63087;51.086;-115.332;2022-09-09T09:20:42;1.00;;;0.40;;
74538;SDS011;63087;51.086;-115.332;2022-09-09T09:23:22;0.70;;;0.40;;
74538;SDS011;63087;51.086;-115.332;2022-09-09T09:25:56;1.30;;;0.40;;
74538;SDS011;63087;51.086;-115.332;2022-09-09T09:28:29;1.50;;;0.40;;
74538;SDS011;63087;51.086;-115.332;2022-09-09T09:31:06;1.30;;;0.40;;
74538;SDS011;63087;51.086;-115.332;2022-09-09T09:33:48;0.90;;;0.40;;
74538;SDS011;63087;51.086;-115.332;2022-09-09T09:36:24;1.30;;;0.40;;
74538;SDS011;63087;51.086;-115.332;2022-09-09T09:39:05;1.20;;;0.50;;
74538;SDS011;63087;51.086;-115.332;2022-09-09T09:41:40;1.00;;;0.50;;
74538;SDS011;63087;51.086;-115.332;2022-09-09T09:44:27;1.70;;;0.70;;
74538;SDS011;63087;51.086;-115.332;2022-09-09T09:47:14;1.20;;;0.50;;
74538;SDS011;63087;51.086;-115.332;2022-09-09T09:49:57;1.00;;;0.50;;
74538;SDS011;63087;51.086;-115.332;2022-09-09T09:52:28;1.50;;;0.40;;
74538;SDS011;63087;51.086;-115.332;2022-09-09T09:54:58;1.70;;;0.50;;
74538;SDS011;63087;51.086;-115.332;2022-09-09T09:57:31;2.80;;;0.50;;
74538;SDS011;63087;51.086;-115.332;2022-09-09T10:02:45;1.10;;;0.60;;
74538;SDS011;63087;51.086;-115.332;2022-09-09T10:08:10;1.90;;;0.50;;
74538;SDS011;63087;51.086;-115.332;2022-09-09T10:13:40;1.30;;;0.40;;
74538;SDS011;63087;51.086;-115.332;2022-09-09T10:19:53;0.90;;;0.40;;
74538;SDS011;63087;51.086;-115.332;2022-09-09T10:22:32;1.80;;;0.60;;
74538;SDS011;63087;51.086;-115.332;2022-09-09T10:25:27;1.90;;;0.50;;
74538;SDS011;63087;51.086;-115.332;2022-09-09T10:44:03;1.10;;;0.50;;
74538;SDS011;63087;51.086;-115.332;2022-09-09T10:47:00;1.10;;;0.30;;
74538;SDS011;63087;51.086;-115.332;2022-09-09T10:55:23;1.30;;;0.60;;
74538;SDS011;63087;51.086;-115.332;2022-09-09T10:57:58;1.30;;;0.50;;
74538;SDS011;63087;51.086;-115.332;2022-09-09T11:06:15;1.40;;;0.70;;
74538;SDS011;63087;51.086;-115.332;2022-09-09T11:08:47;2.90;;;0.70;;
74538;SDS011;63087;51.086;-115.332;2022-09-09T11:14:41;1.10;;;0.50;;
74538;SDS011;63087;51.086;-115.332;2022-09-09T11:17:26;1.10;;;0.60;;
74538;SDS011;63087;51.086;-115.332;2022-09-09T11:20:01;1.60;;;0.60;;
74538;SDS011;63087;51.086;-115.332;2022-09-09T11:22:43;1.50;;;0.80;;
74538;SDS011;63087;51.086;-115.332;2022-09-09T11:25:23;1.60;;;0.40;;
74538;SDS011;63087;51.086;-115.332;2022-09-09T11:42:18;2.30;;;0.90;;
74538;SDS011;63087;51.086;-115.332;2022-09-09T11:44:50;2.00;;;0.90;;
74538;SDS011;63087;51.086;-115.332;2022-09-09T11:50:09;2.00;;;1.00;;
74538;SDS011;63087;51.086;-115.332;2022-09-09T11:53:17;2.20;;;0.80;;
74538;SDS011;63087;51.086;-115.332;2022-09-09T11:55:46;3.30;;;1.10;;
74538;SDS011;63087;51.086;-115.332;2022-09-09T11:58:18;3.00;;;1.10;;
74538;SDS011;63087;51.086;-115.332;2022-09-09T12:00:48;3.50;;;1.00;;
74538;SDS011;63087;51.086;-115.332;2022-09-09T12:03:35;2.00;;;0.90;;
74538;SDS011;63087;51.086;-115.332;2022-09-09T12:06:29;2.40;;;0.80;;
74538;SDS011;63087;51.086;-115.332;2022-09-09T12:12:04;2.00;;;0.70;;
74538;SDS011;63087;51.086;-115.332;2022-09-09T12:14:55;1.50;;;0.70;;
74538;SDS011;63087;51.086;-115.332;2022-09-09T12:17:54;1.60;;;0.80;;
74538;SDS011;63087;51.086;-115.332;2022-09-09T12:20:37;1.30;;;0.50;;
74538;SDS011;63087;51.086;-115.332;2022-09-09T12:23:25;3.80;;;0.60;;
74538;SDS011;63087;51.086;-115.332;2022-09-09T12:26:15;1.60;;;0.60;;
74538;SDS011;63087;51.086;-115.332;2022-09-09T12:29:10;1.40;;;0.60;;
74538;SDS011;63087;51.086;-115.332;2022-09-09T12:37:42;1.50;;;0.70;;
74538;SDS011;63087;51.086;-115.332;2022-09-09T12:40:29;1.30;;;0.80;;
74538;SDS011;63087;51.086;-115.332;2022-09-09T12:43:22;1.30;;;0.70;;
74538;SDS011;63087;51.086;-115.332;2022-09-09T12:45:52;1.70;;;0.70;;
74538;SDS011;63087;51.086;-115.332;2022-09-09T12:48:38;2.00;;;0.70;;
74538;SDS011;63087;51.086;-115.332;2022-09-09T12:51:37;2.00;;;0.80;;
74538;SDS011;63087;51.086;-115.332;2022-09-09T12:54:04;1.90;;;1.00;;
74538;SDS011;63087;51.086;-115.332;2022-09-09T12:56:32;2.40;;;0.80;;
74538;SDS011;63087;51.086;-115.332;2022-09-09T12:59:01;2.00;;;0.70;;
74538;SDS011;63087;51.086;-115.332;2022-09-09T13:01:30;1.90;;;0.90;;
74538;SDS011;63087;51.086;-115.332;2022-09-09T13:04:02;2.00;;;0.70;;
74538;SDS011;63087;51.086;-115.332;2022-09-09T13:06:45;2.50;;;1.20;;
74538;SDS011;63087;51.086;-115.332;2022-09-09T13:09:12;1.10;;;0.60;;
74538;SDS011;63087;51.086;-115.332;2022-09-09T13:11:49;1.60;;;0.80;;
74538;SDS011;63087;51.086;-115.332;2022-09-09T13:14:30;2.20;;;0.60;;
74538;SDS011;63087;51.086;-115.332;2022-09-09T13:17:06;1.70;;;0.60;;
74538;SDS011;63087;51.086;-115.332;2022-09-09T13:19:52;1.90;;;0.80;;
74538;SDS011;63087;51.086;-115.332;2022-09-09T13:27:34;1.90;;;0.80;;
74538;SDS011;63087;51.086;-115.332;2022-09-09T13:30:35;1.50;;;0.70;;
74538;SDS011;63087;51.086;-115.332;2022-09-09T13:35:54;1.50;;;0.70;;
74538;SDS011;63087;51.086;-115.332;2022-09-09T13:38:23;1.60;;;1.10;;
74538;SDS011;63087;51.086;-115.332;2022-09-09T13:40:55;1.80;;;0.50;;
74538;SDS011;63087;51.086;-115.332;2022-09-09T13:43:25;1.80;;;0.60;;
74538;SDS011;63087;51.086;-115.332;2022-09-09T13:46:01;3.20;;;1.10;;
74538;SDS011;63087;51.086;-115.332;2022-09-09T13:48:31;2.10;;;0.90;;
74538;SDS011;63087;51.086;-115.332;2022-09-09T13:51:03;2.00;;;1.10;;
74538;SDS011;63087;51.086;-115.332;2022-09-09T13:53:31;1.70;;;0.90;;
74538;SDS011;63087;51.086;-115.332;2022-09-09T13:56:03;2.00;;;0.90;;
74538;SDS011;63087;51.086;-115.332;2022-09-09T13:58:33;2.10;;;1.00;;
74538;SDS011;63087;51.086;-115.332;2022-09-09T14:01:00;2.40;;;0.90;;
74538;SDS011;63087;51.086;-115.332;2022-09-09T14:03:27;1.50;;;0.90;;
74538;SDS011;63087;51.086;-115.332;2022-09-09T14:05:58;2.10;;;0.80;;
74538;SDS011;63087;51.086;-115.332;2022-09-09T14:08:26;1.30;;;0.60;;
74538;SDS011;63087;51.086;-115.332;2022-09-09T14:11:05;1.70;;;0.80;;
74538;SDS011;63087;51.086;-115.332;2022-09-09T14:13:37;2.60;;;0.80;;
74538;SDS011;63087;51.086;-115.332;2022-09-09T14:16:04;2.90;;;1.00;;
74538;SDS011;63087;51.086;-115.332;2022-09-09T14:18:32;2.90;;;1.00;;
74538;SDS011;63087;51.086;-115.332;2022-09-09T14:21:00;3.00;;;1.20;;
74538;SDS011;63087;51.086;-115.332;2022-09-09T14:23:28;3.20;;;1.40;;
74538;SDS011;63087;51.086;-115.332;2022-09-09T14:25:55;2.90;;;1.00;;
74538;SDS011;63087;51.086;-115.332;2022-09-09T14:28:23;2.50;;;1.30;;
74538;SDS011;63087;51.086;-115.332;2022-09-09T14:30:51;2.00;;;1.00;;
74538;SDS011;63087;51.086;-115.332;2022-09-09T14:33:18;2.30;;;1.00;;
74538;SDS011;63087;51.086;-115.332;2022-09-09T14:35:46;2.10;;;0.90;;
74538;SDS011;63087;51.086;-115.332;2022-09-09T14:38:13;3.10;;;1.00;;
74538;SDS011;63087;51.086;-115.332;2022-09-09T14:40:40;2.70;;;1.40;;
74538;SDS011;63087;51.086;-115.332;2022-09-09T14:43:11;3.30;;;1.30;;
74538;SDS011;63087;51.086;-115.332;2022-09-09T14:45:40;4.00;;;1.60;;
74538;SDS011;63087;51.086;-115.332;2022-09-09T14:48:07;3.40;;;2.00;;
74538;SDS011;63087;51.086;-115.332;2022-09-09T14:50:43;3.20;;;1.50;;
74538;SDS011;63087;51.086;-115.332;2022-09-09T14:53:10;4.00;;;1.90;;
74538;SDS011;63087;51.086;-115.332;2022-09-09T14:55:38;1.60;;;0.90;;
74538;SDS011;63087;51.086;-115.332;2022-09-09T14:58:05;2.90;;;1.20;;
74538;SDS011;63087;51.086;-115.332;2022-09-09T15:00:32;2.90;;;0.90;;
74538;SDS011;63087;51.086;-115.332;2022-09-09T15:03:00;3.20;;;1.50;;
74538;SDS011;63087;51.086;-115.332;2022-09-09T15:05:27;3.20;;;1.70;;
74538;SDS011;63087;51.086;-115.332;2022-09-09T15:07:54;4.30;;;1.50;;
74538;SDS011;63087;51.086;-115.332;2022-09-09T15:10:22;3.90;;;1.20;;
74538;SDS011;63087;51.086;-115.332;2022-09-09T15:12:49;4.40;;;1.90;;
74538;SDS011;63087;51.086;-115.332;2022-09-09T15:15:16;5.50;;;1.60;;
74538;SDS011;63087;51.086;-115.332;2022-09-09T15:17:43;3.20;;;1.50;;
74538;SDS011;63087;51.086;-115.332;2022-09-09T15:20:10;2.60;;;1.10;;
74538;SDS011;63087;51.086;-115.332;2022-09-09T15:22:37;2.30;;;1.00;;
74538;SDS011;63087;51.086;-115.332;2022-09-09T15:25:06;2.70;;;0.90;;
74538;SDS011;63087;51.086;-115.332;2022-09-09T15:27:34;1.30;;;0.80;;
74538;SDS011;63087;51.086;-115.332;2022-09-09T15:30:01;2.90;;;1.10;;
74538;SDS011;63087;51.086;-115.332;2022-09-09T15:32:28;3.50;;;1.00;;
74538;SDS011;63087;51.086;-115.332;2022-09-09T15:34:55;2.80;;;1.00;;
74538;SDS011;63087;51.086;-115.332;2022-09-09T15:37:22;2.70;;;1.30;;
74538;SDS011;63087;51.086;-115.332;2022-09-09T15:39:50;3.70;;;1.30;;
74538;SDS011;63087;51.086;-115.332;2022-09-09T15:42:17;2.50;;;1.30;;
74538;SDS011;63087;51.086;-115.332;2022-09-09T15:44:44;1.90;;;0.90;;
74538;SDS011;63087;51.086;-115.332;2022-09-09T15:47:12;1.60;;;0.70;;
74538;SDS011;63087;51.086;-115.332;2022-09-09T15:49:39;1.60;;;0.90;;
74538;SDS011;63087;51.086;-115.332;2022-09-09T15:52:08;2.10;;;0.80;;
74538;SDS011;63087;51.086;-115.332;2022-09-09T15:54:37;2.00;;;0.90;;
74538;SDS011;63087;51.086;-115.332;2022-09-09T15:57:06;2.10;;;1.30;;
74538;SDS011;63087;51.086;-115.332;2022-09-09T15:59:38;2.90;;;1.30;;
74538;SDS011;63087;51.086;-115.332;2022-09-09T16:02:06;2.80;;;1.40;;
74538;SDS011;63087;51.086;-115.332;2022-09-09T16:04:33;4.50;;;1.20;;
74538;SDS011;63087;51.086;-115.332;2022-09-09T16:07:03;3.60;;;1.20;;
74538;SDS011;63087;51.086;-115.332;2022-09-09T16:09:32;2.70;;;1.10;;
74538;SDS011;63087;51.086;-115.332;2022-09-09T16:12:01;3.20;;;1.30;;
74538;SDS011;63087;51.086;-115.332;2022-09-09T16:14:32;2.60;;;1.20;;
74538;SDS011;63087;51.086;-115.332;2022-09-09T16:17:02;2.20;;;1.00;;
74538;SDS011;63087;51.086;-115.332;2022-09-09T16:19:31;2.00;;;0.80;;
74538;SDS011;63087;51.086;-115.332;2022-09-09T16:22:01;3.30;;;0.90;;
74538;SDS011;63087;51.086;-115.332;2022-09-09T16:24:29;1.70;;;0.90;;
74538;SDS011;63087;51.086;-115.332;2022-09-09T16:26:56;1.90;;;0.80;;
74538;SDS011;63087;51.086;-115.332;2022-09-09T16:29:23;2.60;;;0.90;;
74538;SDS011;63087;51.086;-115.332;2022-09-09T16:31:54;2.10;;;0.90;;
74538;SDS011;63087;51.086;-115.332;2022-09-09T16:34:21;1.90;;;0.70;;
74538;SDS011;63087;51.086;-115.332;2022-09-09T16:36:49;1.80;;;0.50;;
74538;SDS011;63087;51.086;-115.332;2022-09-09T16:39:19;1.50;;;0.60;;
74538;SDS011;63087;51.086;-115.332;2022-09-09T16:41:47;1.40;;;0.80;;
74538;SDS011;63087;51.086;-115.332;2022-09-09T16:44:16;1.70;;;0.80;;
74538;SDS011;63087;51.086;-115.332;2022-09-09T16:46:46;1.90;;;0.90;;
74538;SDS011;63087;51.086;-115.332;2022-09-09T16:49:17;2.30;;;0.90;;
74538;SDS011;63087;51.086;-115.332;2022-09-09T16:51:49;2.60;;;1.10;;
74538;SDS011;63087;51.086;-115.332;2022-09-09T16:54:20;2.60;;;1.10;;
74538;SDS011;63087;51.086;-115.332;2022-09-09T16:56:48;2.10;;;1.10;;
74538;SDS011;63087;51.086;-115.332;2022-09-09T16:59:20;2.70;;;1.20;;
74538;SDS011;63087;51.086;-115.332;2022-09-09T17:01:49;2.10;;;1.00;;
74538;SDS011;63087;51.086;-115.332;2022-09-09T17:04:24;2.40;;;1.00;;
74538;SDS011;63087;51.086;-115.332;2022-09-09T17:06:54;1.60;;;0.70;;
74538;SDS011;63087;51.086;-115.332;2022-09-09T17:09:24;1.90;;;0.80;;
74538;SDS011;63087;51.086;-115.332;2022-09-09T17:11:55;1.90;;;1.00;;
74538;SDS011;63087;51.086;-115.332;2022-09-09T17:14:22;1.70;;;0.90;;
74538;SDS011;63087;51.086;-115.332;2022-09-09T17:16:50;2.30;;;0.90;;